Capitol Logistics 5092

Operating for GRZ



PHNL
Daniel K Inouye International Airport
Honolulu, Hawaii
PANC
Ted Stevens Anchorage International Airport
Anchorage, Alaska

Activity Log

Date Flight Route Aircraft Duration
No Flights Yet

Route Details

Aircraft Information
Primary: Boeing 767-300BDSF
Backup: Boeing 747-400BCF
Route Data
Distance: 2413nm
Duration: 5h 25m
Recm'd Route: MKK4 APACK 3000N/15600W 3500N/15600W 4000N/15600W 4500N/15500W 5000N/15400W 5500N/15300W ODK BAITT NEELL6
Origin Wx: PHNL 180253Z 05015KT 10SM FEW024 FEW037 SCT055 26/15 A3000 RMK AO2 SLP159 T02610150 55001
Dest. Wx: PANC 180253Z 00000KT 10SM FEW120 SCT200 13/M04 A3032 RMK AO2 SLP269 T01281044 56015 VISNO N $
Notes: 1X PER WEEK